Terminal Aerodrome Forecast
Issued by NWS Portland, OR

Home | Current Version | Previous Version | Text Only | Print | Product List | Glossary On
Versions: 1 2 3 4 5 6 7 8 9 10 11 12 13 14 15 16 17 18 19 20 21 22 23 24 25 26 27 28 29 30 31 32 33 34 35
989
FTUS46 KPQR 142341
TAFEUG
TAF
KEUG 142341Z 1500/1524 24010KT P6SM SCT015 SCT030 BKN060
     FM150600 20008KT 5SM -RA BR BKN015 OVC040
     FM150900 19006KT 5SM BR BKN008 OVC020
     FM151800 18010KT P6SM SCT020 BKN040 OVC070=

USA.gov is the U.S. government's official web portal to all federal, state and local government web resources and services.